Amorita, Oklahoma
Current Conditions -  °F | °C
As of 12:10 PM on Wednesday 26 Nov 2014 (Local Time) from KAVK Reporting Station
Overcast Overcast  
Wind Chill: 50°   Ceiling: 10000
Heat Index: 50°   Visibility: 10mi
Dew Point: 25°   Wind: 25mph
Humidity: 37%   Direction: 330°NNW
Pressure: 30.21"   Gusts: 33mph
Location:  36.92°N, 98.29°W
Report Text: KAVK 261810Z AUTO 33022G29KT 10SM OVC100 10/M04 A3021 RMK AO2
Loading
Personal Weather Stations






























Interactive Weather Map New forecast layout! Learn more

10-Day Weather Forecast

Advertisements
Track Severe Weather on mobile